sensor_id;sensor_type;location;lat;lon;timestamp;P1;durP1;ratioP1;P2;durP2;ratioP2
80557;SDS011;69901;43.524;-5.636;2023-06-26T00:00:43;11.67;;;4.07;;
80557;SDS011;69901;43.524;-5.636;2023-06-26T00:03:08;11.87;;;4.40;;
80557;SDS011;69901;43.524;-5.636;2023-06-26T00:05:33;11.43;;;4.37;;
80557;SDS011;69901;43.524;-5.636;2023-06-26T00:07:59;9.85;;;4.18;;
80557;SDS011;69901;43.524;-5.636;2023-06-26T00:10:25;9.95;;;4.07;;
80557;SDS011;69901;43.524;-5.636;2023-06-26T00:12:51;10.90;;;4.77;;
80557;SDS011;69901;43.524;-5.636;2023-06-26T00:15:16;11.23;;;4.43;;
80557;SDS011;69901;43.524;-5.636;2023-06-26T00:17:41;12.97;;;4.83;;
80557;SDS011;69901;43.524;-5.636;2023-06-26T00:20:07;13.13;;;3.57;;
80557;SDS011;69901;43.524;-5.636;2023-06-26T00:22:33;9.02;;;4.20;;
80557;SDS011;69901;43.524;-5.636;2023-06-26T00:24:58;11.13;;;4.60;;
80557;SDS011;69901;43.524;-5.636;2023-06-26T00:27:24;10.73;;;4.47;;
80557;SDS011;69901;43.524;-5.636;2023-06-26T00:29:49;11.93;;;4.07;;
80557;SDS011;69901;43.524;-5.636;2023-06-26T00:32:14;9.97;;;3.80;;
80557;SDS011;69901;43.524;-5.636;2023-06-26T00:34:39;10.20;;;3.40;;
80557;SDS011;69901;43.524;-5.636;2023-06-26T00:37:05;9.30;;;3.70;;
80557;SDS011;69901;43.524;-5.636;2023-06-26T00:39:30;9.57;;;3.83;;
80557;SDS011;69901;43.524;-5.636;2023-06-26T00:41:55;8.60;;;3.17;;
80557;SDS011;69901;43.524;-5.636;2023-06-26T00:44:21;9.00;;;3.67;;
80557;SDS011;69901;43.524;-5.636;2023-06-26T00:46:46;9.93;;;3.40;;
80557;SDS011;69901;43.524;-5.636;2023-06-26T00:49:12;8.97;;;3.50;;
80557;SDS011;69901;43.524;-5.636;2023-06-26T00:51:37;9.07;;;3.40;;
80557;SDS011;69901;43.524;-5.636;2023-06-26T00:54:02;10.67;;;3.67;;
80557;SDS011;69901;43.524;-5.636;2023-06-26T00:56:28;10.10;;;3.47;;
80557;SDS011;69901;43.524;-5.636;2023-06-26T00:58:54;7.95;;;3.15;;
80557;SDS011;69901;43.524;-5.636;2023-06-26T01:01:19;7.90;;;2.67;;
80557;SDS011;69901;43.524;-5.636;2023-06-26T01:03:47;9.05;;;3.33;;
80557;SDS011;69901;43.524;-5.636;2023-06-26T01:06:16;7.27;;;2.73;;
80557;SDS011;69901;43.524;-5.636;2023-06-26T01:08:42;9.05;;;2.42;;
80557;SDS011;69901;43.524;-5.636;2023-06-26T01:11:08;7.88;;;3.00;;
80557;SDS011;69901;43.524;-5.636;2023-06-26T01:13:34;7.20;;;2.47;;
80557;SDS011;69901;43.524;-5.636;2023-06-26T01:16:00;8.80;;;3.05;;
80557;SDS011;69901;43.524;-5.636;2023-06-26T01:18:26;9.23;;;2.85;;
80557;SDS011;69901;43.524;-5.636;2023-06-26T01:20:52;8.00;;;2.88;;
80557;SDS011;69901;43.524;-5.636;2023-06-26T01:23:25;10.13;;;2.80;;
80557;SDS011;69901;43.524;-5.636;2023-06-26T01:26:10;10.30;;;3.22;;
80557;SDS011;69901;43.524;-5.636;2023-06-26T01:28:41;7.67;;;3.20;;
80557;SDS011;69901;43.524;-5.636;2023-06-26T01:31:07;8.13;;;3.17;;
80557;SDS011;69901;43.524;-5.636;2023-06-26T01:33:32;10.65;;;3.25;;
80557;SDS011;69901;43.524;-5.636;2023-06-26T01:35:57;7.20;;;3.07;;
80557;SDS011;69901;43.524;-5.636;2023-06-26T01:38:23;7.83;;;3.20;;
80557;SDS011;69901;43.524;-5.636;2023-06-26T01:40:49;8.10;;;3.00;;
80557;SDS011;69901;43.524;-5.636;2023-06-26T01:45:59;9.93;;;3.10;;
80557;SDS011;69901;43.524;-5.636;2023-06-26T01:48:28;8.43;;;2.55;;
80557;SDS011;69901;43.524;-5.636;2023-06-26T01:50:55;8.27;;;3.05;;
80557;SDS011;69901;43.524;-5.636;2023-06-26T01:53:24;11.07;;;3.27;;
80557;SDS011;69901;43.524;-5.636;2023-06-26T01:55:51;8.30;;;2.67;;
80557;SDS011;69901;43.524;-5.636;2023-06-26T01:58:19;8.75;;;2.65;;
80557;SDS011;69901;43.524;-5.636;2023-06-26T02:00:45;9.05;;;3.20;;
80557;SDS011;69901;43.524;-5.636;2023-06-26T02:03:11;9.30;;;3.40;;
80557;SDS011;69901;43.524;-5.636;2023-06-26T02:05:36;8.03;;;3.13;;
80557;SDS011;69901;43.524;-5.636;2023-06-26T02:08:01;9.50;;;3.40;;
80557;SDS011;69901;43.524;-5.636;2023-06-26T02:10:28;9.40;;;3.30;;
80557;SDS011;69901;43.524;-5.636;2023-06-26T02:12:53;9.40;;;3.33;;
80557;SDS011;69901;43.524;-5.636;2023-06-26T02:15:18;11.77;;;3.67;;
80557;SDS011;69901;43.524;-5.636;2023-06-26T02:17:43;9.53;;;3.37;;
80557;SDS011;69901;43.524;-5.636;2023-06-26T02:20:13;8.93;;;3.45;;
80557;SDS011;69901;43.524;-5.636;2023-06-26T02:22:38;9.57;;;3.67;;
80557;SDS011;69901;43.524;-5.636;2023-06-26T02:25:03;10.73;;;3.87;;
80557;SDS011;69901;43.524;-5.636;2023-06-26T02:27:29;12.37;;;4.17;;
80557;SDS011;69901;43.524;-5.636;2023-06-26T02:29:54;11.10;;;4.07;;
80557;SDS011;69901;43.524;-5.636;2023-06-26T02:32:19;9.83;;;4.17;;
80557;SDS011;69901;43.524;-5.636;2023-06-26T02:34:45;10.67;;;4.20;;
80557;SDS011;69901;43.524;-5.636;2023-06-26T02:37:10;12.10;;;3.73;;
80557;SDS011;69901;43.524;-5.636;2023-06-26T02:39:35;9.40;;;3.72;;
80557;SDS011;69901;43.524;-5.636;2023-06-26T02:42:01;14.77;;;4.17;;
80557;SDS011;69901;43.524;-5.636;2023-06-26T02:44:26;12.27;;;3.80;;
80557;SDS011;69901;43.524;-5.636;2023-06-26T02:46:51;11.17;;;3.97;;
80557;SDS011;69901;43.524;-5.636;2023-06-26T02:49:17;9.20;;;4.40;;
80557;SDS011;69901;43.524;-5.636;2023-06-26T02:51:42;13.13;;;3.93;;
80557;SDS011;69901;43.524;-5.636;2023-06-26T02:54:07;11.10;;;4.27;;
80557;SDS011;69901;43.524;-5.636;2023-06-26T02:56:33;9.97;;;4.40;;
80557;SDS011;69901;43.524;-5.636;2023-06-26T02:58:58;10.67;;;4.17;;
80557;SDS011;69901;43.524;-5.636;2023-06-26T03:01:24;9.90;;;3.90;;
80557;SDS011;69901;43.524;-5.636;2023-06-26T03:03:49;9.33;;;3.80;;
80557;SDS011;69901;43.524;-5.636;2023-06-26T03:06:14;8.57;;;3.70;;
80557;SDS011;69901;43.524;-5.636;2023-06-26T03:08:40;11.87;;;4.93;;
80557;SDS011;69901;43.524;-5.636;2023-06-26T03:11:06;11.57;;;3.40;;
80557;SDS011;69901;43.524;-5.636;2023-06-26T03:13:32;11.90;;;4.60;;
80557;SDS011;69901;43.524;-5.636;2023-06-26T03:15:57;8.27;;;3.92;;
80557;SDS011;69901;43.524;-5.636;2023-06-26T03:18:22;12.67;;;3.80;;
80557;SDS011;69901;43.524;-5.636;2023-06-26T03:20:48;9.40;;;4.00;;
80557;SDS011;69901;43.524;-5.636;2023-06-26T03:23:13;10.37;;;3.20;;
80557;SDS011;69901;43.524;-5.636;2023-06-26T03:25:38;10.93;;;3.77;;
80557;SDS011;69901;43.524;-5.636;2023-06-26T03:28:03;9.80;;;3.67;;
80557;SDS011;69901;43.524;-5.636;2023-06-26T03:30:29;11.10;;;3.60;;
80557;SDS011;69901;43.524;-5.636;2023-06-26T03:32:54;11.07;;;4.00;;
80557;SDS011;69901;43.524;-5.636;2023-06-26T03:35:19;11.43;;;4.10;;
80557;SDS011;69901;43.524;-5.636;2023-06-26T03:37:45;9.30;;;3.83;;
80557;SDS011;69901;43.524;-5.636;2023-06-26T03:40:10;12.70;;;4.07;;
80557;SDS011;69901;43.524;-5.636;2023-06-26T03:42:35;9.87;;;3.77;;
80557;SDS011;69901;43.524;-5.636;2023-06-26T03:45:00;12.10;;;3.87;;
80557;SDS011;69901;43.524;-5.636;2023-06-26T03:47:26;10.40;;;4.17;;
80557;SDS011;69901;43.524;-5.636;2023-06-26T03:49:51;9.93;;;3.80;;
80557;SDS011;69901;43.524;-5.636;2023-06-26T03:52:16;10.40;;;3.97;;
80557;SDS011;69901;43.524;-5.636;2023-06-26T03:54:41;11.90;;;4.03;;
80557;SDS011;69901;43.524;-5.636;2023-06-26T03:57:07;10.27;;;3.60;;
80557;SDS011;69901;43.524;-5.636;2023-06-26T03:59:32;10.60;;;3.87;;
80557;SDS011;69901;43.524;-5.636;2023-06-26T04:01:57;11.80;;;4.17;;
80557;SDS011;69901;43.524;-5.636;2023-06-26T04:04:23;9.68;;;3.67;;
80557;SDS011;69901;43.524;-5.636;2023-06-26T04:06:48;12.50;;;3.60;;
80557;SDS011;69901;43.524;-5.636;2023-06-26T04:09:14;10.50;;;3.60;;
80557;SDS011;69901;43.524;-5.636;2023-06-26T04:11:39;9.70;;;3.40;;
80557;SDS011;69901;43.524;-5.636;2023-06-26T04:14:04;10.70;;;3.90;;
80557;SDS011;69901;43.524;-5.636;2023-06-26T04:16:30;9.13;;;3.30;;
80557;SDS011;69901;43.524;-5.636;2023-06-26T04:18:55;10.30;;;3.27;;
80557;SDS011;69901;43.524;-5.636;2023-06-26T04:21:21;10.18;;;3.58;;
80557;SDS011;69901;43.524;-5.636;2023-06-26T04:23:48;7.47;;;3.20;;
80557;SDS011;69901;43.524;-5.636;2023-06-26T04:26:14;9.10;;;3.83;;
80557;SDS011;69901;43.524;-5.636;2023-06-26T04:28:39;9.20;;;3.77;;
80557;SDS011;69901;43.524;-5.636;2023-06-26T04:31:05;9.00;;;3.83;;
80557;SDS011;69901;43.524;-5.636;2023-06-26T04:33:30;9.37;;;3.47;;
80557;SDS011;69901;43.524;-5.636;2023-06-26T04:35:55;9.13;;;3.67;;
80557;SDS011;69901;43.524;-5.636;2023-06-26T04:38:21;8.10;;;3.70;;
80557;SDS011;69901;43.524;-5.636;2023-06-26T04:40:47;9.97;;;3.47;;
80557;SDS011;69901;43.524;-5.636;2023-06-26T04:43:12;9.52;;;3.38;;
80557;SDS011;69901;43.524;-5.636;2023-06-26T04:45:37;9.10;;;3.43;;
80557;SDS011;69901;43.524;-5.636;2023-06-26T04:48:03;9.03;;;3.87;;
80557;SDS011;69901;43.524;-5.636;2023-06-26T04:50:28;11.33;;;3.87;;
80557;SDS011;69901;43.524;-5.636;2023-06-26T04:52:54;10.05;;;3.72;;
80557;SDS011;69901;43.524;-5.636;2023-06-26T04:55:19;9.93;;;4.17;;
80557;SDS011;69901;43.524;-5.636;2023-06-26T04:57:46;11.80;;;4.57;;
80557;SDS011;69901;43.524;-5.636;2023-06-26T05:00:12;8.07;;;3.43;;
80557;SDS011;69901;43.524;-5.636;2023-06-26T05:02:37;10.45;;;4.03;;
80557;SDS011;69901;43.524;-5.636;2023-06-26T05:05:02;10.47;;;4.07;;
80557;SDS011;69901;43.524;-5.636;2023-06-26T05:07:28;9.97;;;3.40;;
80557;SDS011;69901;43.524;-5.636;2023-06-26T05:09:53;9.10;;;3.53;;
80557;SDS011;69901;43.524;-5.636;2023-06-26T05:12:18;8.30;;;3.80;;
80557;SDS011;69901;43.524;-5.636;2023-06-26T05:14:43;8.43;;;3.80;;
80557;SDS011;69901;43.524;-5.636;2023-06-26T05:17:10;12.68;;;4.30;;
80557;SDS011;69901;43.524;-5.636;2023-06-26T05:19:35;9.03;;;3.37;;
80557;SDS011;69901;43.524;-5.636;2023-06-26T05:22:01;8.63;;;3.73;;
80557;SDS011;69901;43.524;-5.636;2023-06-26T05:24:29;11.88;;;3.83;;
80557;SDS011;69901;43.524;-5.636;2023-06-26T05:26:55;15.05;;;4.00;;
80557;SDS011;69901;43.524;-5.636;2023-06-26T05:29:20;9.87;;;3.57;;
80557;SDS011;69901;43.524;-5.636;2023-06-26T05:31:46;9.57;;;4.03;;
80557;SDS011;69901;43.524;-5.636;2023-06-26T05:34:12;10.15;;;3.47;;
80557;SDS011;69901;43.524;-5.636;2023-06-26T05:36:38;10.55;;;3.55;;
80557;SDS011;69901;43.524;-5.636;2023-06-26T05:39:04;9.33;;;3.73;;
80557;SDS011;69901;43.524;-5.636;2023-06-26T05:41:30;10.88;;;2.70;;
80557;SDS011;69901;43.524;-5.636;2023-06-26T05:43:55;10.97;;;3.90;;
80557;SDS011;69901;43.524;-5.636;2023-06-26T05:46:20;8.90;;;3.37;;
80557;SDS011;69901;43.524;-5.636;2023-06-26T05:48:46;9.50;;;3.43;;
80557;SDS011;69901;43.524;-5.636;2023-06-26T05:51:12;8.75;;;3.17;;
80557;SDS011;69901;43.524;-5.636;2023-06-26T05:53:38;9.30;;;3.43;;
80557;SDS011;69901;43.524;-5.636;2023-06-26T05:56:03;8.30;;;3.27;;
80557;SDS011;69901;43.524;-5.636;2023-06-26T05:58:28;9.47;;;3.57;;
80557;SDS011;69901;43.524;-5.636;2023-06-26T06:00:55;9.05;;;3.17;;
80557;SDS011;69901;43.524;-5.636;2023-06-26T06:03:20;10.73;;;3.20;;
80557;SDS011;69901;43.524;-5.636;2023-06-26T06:05:46;9.90;;;3.38;;
80557;SDS011;69901;43.524;-5.636;2023-06-26T06:08:11;10.77;;;2.87;;
80557;SDS011;69901;43.524;-5.636;2023-06-26T06:10:37;8.23;;;3.27;;
80557;SDS011;69901;43.524;-5.636;2023-06-26T06:13:02;9.60;;;3.30;;
80557;SDS011;69901;43.524;-5.636;2023-06-26T06:15:27;10.77;;;3.50;;
80557;SDS011;69901;43.524;-5.636;2023-06-26T06:17:53;8.33;;;3.00;;
80557;SDS011;69901;43.524;-5.636;2023-06-26T06:20:18;10.20;;;3.42;;
80557;SDS011;69901;43.524;-5.636;2023-06-26T06:22:46;10.77;;;3.50;;
80557;SDS011;69901;43.524;-5.636;2023-06-26T06:25:13;8.02;;;2.90;;
80557;SDS011;69901;43.524;-5.636;2023-06-26T06:27:38;9.97;;;3.17;;
80557;SDS011;69901;43.524;-5.636;2023-06-26T06:30:04;8.43;;;3.20;;
80557;SDS011;69901;43.524;-5.636;2023-06-26T06:32:29;9.68;;;3.30;;
80557;SDS011;69901;43.524;-5.636;2023-06-26T06:34:54;8.70;;;2.87;;
80557;SDS011;69901;43.524;-5.636;2023-06-26T06:37:20;9.90;;;2.70;;
80557;SDS011;69901;43.524;-5.636;2023-06-26T06:39:45;10.23;;;3.20;;
80557;SDS011;69901;43.524;-5.636;2023-06-26T06:42:10;9.20;;;2.90;;
80557;SDS011;69901;43.524;-5.636;2023-06-26T06:44:35;12.70;;;3.83;;
80557;SDS011;69901;43.524;-5.636;2023-06-26T06:47:01;8.77;;;2.43;;
80557;SDS011;69901;43.524;-5.636;2023-06-26T06:49:26;7.43;;;2.87;;
80557;SDS011;69901;43.524;-5.636;2023-06-26T06:51:51;9.87;;;3.00;;
80557;SDS011;69901;43.524;-5.636;2023-06-26T06:54:17;9.40;;;2.77;;
80557;SDS011;69901;43.524;-5.636;2023-06-26T06:56:42;10.83;;;3.27;;
80557;SDS011;69901;43.524;-5.636;2023-06-26T06:59:07;9.03;;;2.73;;
80557;SDS011;69901;43.524;-5.636;2023-06-26T07:01:33;8.30;;;2.63;;
80557;SDS011;69901;43.524;-5.636;2023-06-26T07:03:58;8.60;;;3.50;;
80557;SDS011;69901;43.524;-5.636;2023-06-26T07:06:24;11.70;;;3.57;;
80557;SDS011;69901;43.524;-5.636;2023-06-26T07:08:49;8.13;;;3.17;;
80557;SDS011;69901;43.524;-5.636;2023-06-26T07:11:15;8.77;;;3.10;;
80557;SDS011;69901;43.524;-5.636;2023-06-26T07:13:40;9.30;;;3.20;;
80557;SDS011;69901;43.524;-5.636;2023-06-26T07:16:06;8.83;;;2.93;;
80557;SDS011;69901;43.524;-5.636;2023-06-26T07:18:31;9.77;;;3.37;;
80557;SDS011;69901;43.524;-5.636;2023-06-26T07:20:56;9.37;;;2.90;;
80557;SDS011;69901;43.524;-5.636;2023-06-26T07:23:22;9.30;;;3.20;;
80557;SDS011;69901;43.524;-5.636;2023-06-26T07:25:47;7.60;;;3.00;;
80557;SDS011;69901;43.524;-5.636;2023-06-26T07:28:12;9.90;;;2.93;;
80557;SDS011;69901;43.524;-5.636;2023-06-26T07:30:38;7.97;;;3.40;;
80557;SDS011;69901;43.524;-5.636;2023-06-26T07:33:03;10.10;;;2.73;;
80557;SDS011;69901;43.524;-5.636;2023-06-26T07:35:28;8.67;;;2.73;;
80557;SDS011;69901;43.524;-5.636;2023-06-26T07:37:54;12.00;;;3.20;;
80557;SDS011;69901;43.524;-5.636;2023-06-26T07:40:19;7.73;;;2.60;;
80557;SDS011;69901;43.524;-5.636;2023-06-26T07:42:44;11.25;;;3.13;;
80557;SDS011;69901;43.524;-5.636;2023-06-26T07:45:11;9.73;;;2.60;;
80557;SDS011;69901;43.524;-5.636;2023-06-26T07:47:37;8.43;;;3.40;;
80557;SDS011;69901;43.524;-5.636;2023-06-26T07:50:03;9.88;;;3.35;;
80557;SDS011;69901;43.524;-5.636;2023-06-26T07:52:28;9.30;;;3.10;;
80557;SDS011;69901;43.524;-5.636;2023-06-26T07:54:55;8.80;;;3.15;;
80557;SDS011;69901;43.524;-5.636;2023-06-26T07:57:20;8.70;;;2.90;;
80557;SDS011;69901;43.524;-5.636;2023-06-26T07:59:46;10.10;;;2.67;;
80557;SDS011;69901;43.524;-5.636;2023-06-26T08:02:11;8.63;;;2.93;;
80557;SDS011;69901;43.524;-5.636;2023-06-26T08:04:36;7.90;;;2.47;;
80557;SDS011;69901;43.524;-5.636;2023-06-26T08:07:02;7.70;;;2.77;;
80557;SDS011;69901;43.524;-5.636;2023-06-26T08:09:29;7.50;;;2.67;;
80557;SDS011;69901;43.524;-5.636;2023-06-26T08:11:55;6.40;;;2.35;;
80557;SDS011;69901;43.524;-5.636;2023-06-26T08:14:20;7.05;;;2.50;;
80557;SDS011;69901;43.524;-5.636;2023-06-26T08:16:46;7.10;;;2.37;;
80557;SDS011;69901;43.524;-5.636;2023-06-26T08:19:12;7.72;;;2.45;;
80557;SDS011;69901;43.524;-5.636;2023-06-26T08:21:37;6.60;;;2.40;;
80557;SDS011;69901;43.524;-5.636;2023-06-26T08:24:03;6.20;;;2.10;;
80557;SDS011;69901;43.524;-5.636;2023-06-26T08:26:29;6.20;;;2.10;;
80557;SDS011;69901;43.524;-5.636;2023-06-26T08:28:54;7.40;;;2.70;;
80557;SDS011;69901;43.524;-5.636;2023-06-26T08:31:19;7.30;;;2.53;;
80557;SDS011;69901;43.524;-5.636;2023-06-26T08:33:45;6.80;;;2.70;;
80557;SDS011;69901;43.524;-5.636;2023-06-26T08:36:11;7.70;;;2.70;;
80557;SDS011;69901;43.524;-5.636;2023-06-26T08:38:36;7.20;;;2.53;;
80557;SDS011;69901;43.524;-5.636;2023-06-26T08:41:02;7.37;;;2.80;;
80557;SDS011;69901;43.524;-5.636;2023-06-26T08:43:27;6.97;;;2.90;;
80557;SDS011;69901;43.524;-5.636;2023-06-26T08:45:53;6.27;;;2.70;;
80557;SDS011;69901;43.524;-5.636;2023-06-26T08:48:20;11.13;;;3.88;;
80557;SDS011;69901;43.524;-5.636;2023-06-26T08:50:46;8.20;;;3.47;;
80557;SDS011;69901;43.524;-5.636;2023-06-26T08:55:41;7.30;;;2.45;;
80557;SDS011;69901;43.524;-5.636;2023-06-26T08:58:07;10.77;;;3.40;;
80557;SDS011;69901;43.524;-5.636;2023-06-26T09:00:33;10.23;;;2.97;;
80557;SDS011;69901;43.524;-5.636;2023-06-26T09:02:59;8.27;;;3.08;;
80557;SDS011;69901;43.524;-5.636;2023-06-26T09:05:25;9.87;;;2.60;;
80557;SDS011;69901;43.524;-5.636;2023-06-26T09:07:52;7.68;;;2.50;;
80557;SDS011;69901;43.524;-5.636;2023-06-26T09:10:20;6.70;;;2.05;;
80557;SDS011;69901;43.524;-5.636;2023-06-26T09:12:46;10.87;;;2.90;;
80557;SDS011;69901;43.524;-5.636;2023-06-26T09:15:14;8.57;;;3.45;;
80557;SDS011;69901;43.524;-5.636;2023-06-26T09:17:39;10.45;;;2.60;;
80557;SDS011;69901;43.524;-5.636;2023-06-26T09:20:08;6.63;;;2.10;;
80557;SDS011;69901;43.524;-5.636;2023-06-26T09:22:35;12.07;;;2.38;;
80557;SDS011;69901;43.524;-5.636;2023-06-26T09:25:00;8.30;;;3.13;;
80557;SDS011;69901;43.524;-5.636;2023-06-26T09:27:26;9.83;;;2.60;;
80557;SDS011;69901;43.524;-5.636;2023-06-26T09:29:51;6.40;;;2.40;;
80557;SDS011;69901;43.524;-5.636;2023-06-26T09:32:16;7.77;;;2.53;;
80557;SDS011;69901;43.524;-5.636;2023-06-26T09:34:42;7.13;;;2.50;;
80557;SDS011;69901;43.524;-5.636;2023-06-26T09:37:11;8.02;;;2.85;;
80557;SDS011;69901;43.524;-5.636;2023-06-26T09:39:36;6.45;;;2.65;;
80557;SDS011;69901;43.524;-5.636;2023-06-26T09:42:02;6.43;;;2.33;;
80557;SDS011;69901;43.524;-5.636;2023-06-26T09:44:28;8.27;;;2.75;;
80557;SDS011;69901;43.524;-5.636;2023-06-26T09:46:55;6.55;;;2.30;;
80557;SDS011;69901;43.524;-5.636;2023-06-26T09:49:20;8.20;;;2.30;;
80557;SDS011;69901;43.524;-5.636;2023-06-26T09:51:46;9.27;;;2.37;;
80557;SDS011;69901;43.524;-5.636;2023-06-26T09:54:11;7.73;;;2.27;;
80557;SDS011;69901;43.524;-5.636;2023-06-26T09:56:36;7.23;;;2.50;;
80557;SDS011;69901;43.524;-5.636;2023-06-26T09:59:02;6.37;;;1.90;;
80557;SDS011;69901;43.524;-5.636;2023-06-26T10:01:28;6.40;;;2.22;;
80557;SDS011;69901;43.524;-5.636;2023-06-26T10:03:54;6.03;;;2.25;;
80557;SDS011;69901;43.524;-5.636;2023-06-26T10:06:27;6.07;;;2.20;;
80557;SDS011;69901;43.524;-5.636;2023-06-26T10:08:53;7.20;;;2.38;;
80557;SDS011;69901;43.524;-5.636;2023-06-26T10:11:20;6.53;;;2.50;;
80557;SDS011;69901;43.524;-5.636;2023-06-26T10:13:47;6.10;;;2.40;;
80557;SDS011;69901;43.524;-5.636;2023-06-26T10:16:14;6.17;;;2.10;;
80557;SDS011;69901;43.524;-5.636;2023-06-26T10:18:41;7.47;;;2.65;;
80557;SDS011;69901;43.524;-5.636;2023-06-26T10:21:08;7.10;;;2.13;;
80557;SDS011;69901;43.524;-5.636;2023-06-26T10:23:35;6.07;;;2.17;;
80557;SDS011;69901;43.524;-5.636;2023-06-26T10:26:01;6.55;;;2.10;;
80557;SDS011;69901;43.524;-5.636;2023-06-26T10:28:27;7.27;;;2.23;;
80557;SDS011;69901;43.524;-5.636;2023-06-26T10:30:53;6.10;;;1.90;;
80557;SDS011;69901;43.524;-5.636;2023-06-26T10:33:19;7.13;;;2.63;;
80557;SDS011;69901;43.524;-5.636;2023-06-26T10:35:45;5.63;;;1.75;;
80557;SDS011;69901;43.524;-5.636;2023-06-26T10:38:11;6.33;;;2.53;;
80557;SDS011;69901;43.524;-5.636;2023-06-26T10:40:43;12.87;;;3.33;;
80557;SDS011;69901;43.524;-5.636;2023-06-26T10:43:10;9.20;;;2.13;;
80557;SDS011;69901;43.524;-5.636;2023-06-26T10:45:36;6.05;;;2.28;;
80557;SDS011;69901;43.524;-5.636;2023-06-26T10:48:02;7.53;;;2.37;;
80557;SDS011;69901;43.524;-5.636;2023-06-26T10:50:30;7.40;;;1.88;;
80557;SDS011;69901;43.524;-5.636;2023-06-26T10:56:00;6.72;;;2.15;;
80557;SDS011;69901;43.524;-5.636;2023-06-26T10:58:26;5.50;;;1.60;;
80557;SDS011;69901;43.524;-5.636;2023-06-26T11:00:58;7.88;;;2.13;;
80557;SDS011;69901;43.524;-5.636;2023-06-26T11:03:39;6.00;;;1.73;;
80557;SDS011;69901;43.524;-5.636;2023-06-26T11:08:45;5.75;;;2.35;;
80557;SDS011;69901;43.524;-5.636;2023-06-26T11:11:12;7.85;;;2.85;;
80557;SDS011;69901;43.524;-5.636;2023-06-26T11:13:37;5.07;;;1.55;;
80557;SDS011;69901;43.524;-5.636;2023-06-26T11:16:04;6.43;;;1.87;;
80557;SDS011;69901;43.524;-5.636;2023-06-26T11:18:31;5.90;;;1.98;;
80557;SDS011;69901;43.524;-5.636;2023-06-26T11:21:03;5.97;;;2.60;;
80557;SDS011;69901;43.524;-5.636;2023-06-26T11:23:29;6.10;;;2.55;;
80557;SDS011;69901;43.524;-5.636;2023-06-26T11:25:55;6.15;;;2.70;;
80557;SDS011;69901;43.524;-5.636;2023-06-26T11:28:21;6.03;;;2.30;;
80557;SDS011;69901;43.524;-5.636;2023-06-26T11:30:46;8.60;;;2.40;;
80557;SDS011;69901;43.524;-5.636;2023-06-26T11:33:11;4.93;;;1.92;;
80557;SDS011;69901;43.524;-5.636;2023-06-26T11:35:37;7.43;;;2.27;;
80557;SDS011;69901;43.524;-5.636;2023-06-26T11:38:03;5.37;;;2.10;;
80557;SDS011;69901;43.524;-5.636;2023-06-26T11:40:35;5.63;;;1.92;;
80557;SDS011;69901;43.524;-5.636;2023-06-26T11:43:00;5.78;;;2.20;;
80557;SDS011;69901;43.524;-5.636;2023-06-26T11:45:33;5.85;;;2.15;;
80557;SDS011;69901;43.524;-5.636;2023-06-26T11:47:59;6.82;;;2.58;;
80557;SDS011;69901;43.524;-5.636;2023-06-26T11:50:24;5.37;;;1.53;;
80557;SDS011;69901;43.524;-5.636;2023-06-26T11:53:07;5.93;;;2.15;;
80557;SDS011;69901;43.524;-5.636;2023-06-26T11:55:40;5.90;;;2.30;;
80557;SDS011;69901;43.524;-5.636;2023-06-26T11:58:06;6.03;;;2.10;;
80557;SDS011;69901;43.524;-5.636;2023-06-26T12:00:31;6.13;;;2.40;;
80557;SDS011;69901;43.524;-5.636;2023-06-26T12:02:57;6.63;;;2.15;;
80557;SDS011;69901;43.524;-5.636;2023-06-26T12:05:23;5.93;;;2.20;;
80557;SDS011;69901;43.524;-5.636;2023-06-26T12:07:49;6.13;;;2.10;;
80557;SDS011;69901;43.524;-5.636;2023-06-26T12:10:15;6.65;;;2.38;;
80557;SDS011;69901;43.524;-5.636;2023-06-26T12:12:41;6.63;;;2.63;;
80557;SDS011;69901;43.524;-5.636;2023-06-26T12:15:07;6.15;;;1.63;;
80557;SDS011;69901;43.524;-5.636;2023-06-26T12:17:33;6.50;;;2.30;;
80557;SDS011;69901;43.524;-5.636;2023-06-26T12:19:58;7.00;;;2.30;;
80557;SDS011;69901;43.524;-5.636;2023-06-26T12:22:23;5.57;;;2.07;;
80557;SDS011;69901;43.524;-5.636;2023-06-26T12:24:49;7.10;;;2.43;;
80557;SDS011;69901;43.524;-5.636;2023-06-26T12:27:15;6.93;;;2.00;;
80557;SDS011;69901;43.524;-5.636;2023-06-26T12:29:42;6.20;;;1.87;;
80557;SDS011;69901;43.524;-5.636;2023-06-26T12:32:08;5.90;;;2.17;;
80557;SDS011;69901;43.524;-5.636;2023-06-26T12:34:34;6.80;;;1.75;;
80557;SDS011;69901;43.524;-5.636;2023-06-26T12:37:03;6.45;;;1.80;;
80557;SDS011;69901;43.524;-5.636;2023-06-26T12:39:29;6.53;;;2.25;;
80557;SDS011;69901;43.524;-5.636;2023-06-26T12:42:00;6.03;;;1.70;;
80557;SDS011;69901;43.524;-5.636;2023-06-26T12:44:26;7.20;;;2.08;;
80557;SDS011;69901;43.524;-5.636;2023-06-26T12:46:56;7.53;;;1.60;;
80557;SDS011;69901;43.524;-5.636;2023-06-26T12:49:28;7.10;;;2.05;;
80557;SDS011;69901;43.524;-5.636;2023-06-26T12:51:54;6.35;;;2.13;;
80557;SDS011;69901;43.524;-5.636;2023-06-26T12:54:19;7.33;;;2.10;;
80557;SDS011;69901;43.524;-5.636;2023-06-26T12:56:44;5.67;;;1.90;;
80557;SDS011;69901;43.524;-5.636;2023-06-26T12:59:10;6.93;;;2.27;;
80557;SDS011;69901;43.524;-5.636;2023-06-26T13:01:35;6.50;;;2.07;;
80557;SDS011;69901;43.524;-5.636;2023-06-26T13:04:01;7.87;;;2.43;;
80557;SDS011;69901;43.524;-5.636;2023-06-26T13:06:28;7.28;;;2.75;;
80557;SDS011;69901;43.524;-5.636;2023-06-26T13:08:53;7.17;;;2.47;;
80557;SDS011;69901;43.524;-5.636;2023-06-26T13:11:18;5.77;;;2.60;;
80557;SDS011;69901;43.524;-5.636;2023-06-26T13:13:44;7.60;;;2.40;;
80557;SDS011;69901;43.524;-5.636;2023-06-26T13:16:09;6.80;;;2.10;;
80557;SDS011;69901;43.524;-5.636;2023-06-26T13:18:34;6.70;;;2.63;;
80557;SDS011;69901;43.524;-5.636;2023-06-26T13:21:00;7.60;;;2.87;;
80557;SDS011;69901;43.524;-5.636;2023-06-26T13:23:25;8.65;;;2.67;;
80557;SDS011;69901;43.524;-5.636;2023-06-26T13:25:51;8.70;;;2.37;;
80557;SDS011;69901;43.524;-5.636;2023-06-26T13:28:16;8.20;;;2.80;;
80557;SDS011;69901;43.524;-5.636;2023-06-26T13:30:42;7.17;;;2.80;;
80557;SDS011;69901;43.524;-5.636;2023-06-26T13:33:07;7.47;;;2.77;;
80557;SDS011;69901;43.524;-5.636;2023-06-26T13:35:32;7.63;;;2.90;;
80557;SDS011;69901;43.524;-5.636;2023-06-26T13:37:58;8.90;;;2.90;;
80557;SDS011;69901;43.524;-5.636;2023-06-26T13:40:23;10.17;;;3.00;;
80557;SDS011;69901;43.524;-5.636;2023-06-26T13:42:48;11.33;;;2.87;;
80557;SDS011;69901;43.524;-5.636;2023-06-26T13:45:13;11.23;;;3.43;;
80557;SDS011;69901;43.524;-5.636;2023-06-26T13:47:39;9.68;;;3.13;;
80557;SDS011;69901;43.524;-5.636;2023-06-26T13:50:07;9.00;;;3.27;;
80557;SDS011;69901;43.524;-5.636;2023-06-26T13:52:32;10.05;;;3.22;;
80557;SDS011;69901;43.524;-5.636;2023-06-26T13:54:57;9.37;;;3.03;;
80557;SDS011;69901;43.524;-5.636;2023-06-26T13:57:23;8.37;;;3.03;;
80557;SDS011;69901;43.524;-5.636;2023-06-26T13:59:48;8.27;;;3.30;;
80557;SDS011;69901;43.524;-5.636;2023-06-26T14:02:14;10.93;;;3.28;;
80557;SDS011;69901;43.524;-5.636;2023-06-26T14:04:40;9.07;;;3.47;;
80557;SDS011;69901;43.524;-5.636;2023-06-26T14:07:05;9.33;;;3.53;;
80557;SDS011;69901;43.524;-5.636;2023-06-26T14:09:30;9.18;;;3.38;;
80557;SDS011;69901;43.524;-5.636;2023-06-26T14:11:56;9.37;;;3.40;;
80557;SDS011;69901;43.524;-5.636;2023-06-26T14:14:21;10.33;;;3.57;;
80557;SDS011;69901;43.524;-5.636;2023-06-26T14:16:46;8.73;;;3.33;;
80557;SDS011;69901;43.524;-5.636;2023-06-26T14:19:14;9.07;;;4.13;;
80557;SDS011;69901;43.524;-5.636;2023-06-26T14:21:42;10.52;;;3.97;;
80557;SDS011;69901;43.524;-5.636;2023-06-26T14:24:07;8.73;;;3.13;;
80557;SDS011;69901;43.524;-5.636;2023-06-26T14:26:33;8.57;;;3.37;;
80557;SDS011;69901;43.524;-5.636;2023-06-26T14:28:59;7.82;;;3.58;;
80557;SDS011;69901;43.524;-5.636;2023-06-26T14:31:24;8.77;;;3.50;;
80557;SDS011;69901;43.524;-5.636;2023-06-26T14:33:49;10.00;;;3.60;;